createdAt,value
2019-03-20T00:00:07.957Z,2.45
2019-03-20T00:05:05.070Z,2.62
2019-03-20T00:10:01.091Z,2.50
2019-03-20T00:14:57.003Z,2.58
2019-03-20T00:19:52.937Z,2.44
2019-03-20T00:24:49.579Z,2.63
2019-03-20T00:29:45.479Z,2.46
2019-03-20T00:34:41.394Z,2.59
2019-03-20T00:39:37.405Z,2.41
2019-03-20T00:44:33.315Z,1.99
2019-03-20T00:49:29.238Z,1.77
2019-03-20T00:54:31.291Z,1.57
2019-03-20T00:59:27.281Z,1.40
2019-03-20T01:04:23.207Z,1.33
2019-03-20T01:09:19.121Z,1.89
2019-03-20T01:14:15.047Z,1.60
2019-03-20T01:19:10.958Z,1.49
2019-03-20T01:24:11.201Z,1.01
2019-03-20T01:29:07.214Z,0.88
2019-03-20T01:34:03.259Z,0.87
2019-03-20T01:38:59.165Z,1.32
2019-03-20T01:43:55.068Z,1.17
2019-03-20T01:48:50.978Z,1.29
2019-03-20T01:53:48.536Z,0.75
2019-03-20T01:58:44.571Z,1.21
2019-03-20T02:03:40.956Z,1.53
2019-03-20T02:08:36.991Z,1.30
2019-03-20T02:13:32.904Z,0.82
2019-03-20T02:18:28.821Z,0.76
2019-03-20T02:23:24.707Z,0.71
2019-03-20T02:28:20.767Z,1.12
2019-03-20T02:33:16.675Z,1.11
2019-03-20T02:38:12.622Z,0.74
2019-03-20T02:43:08.503Z,1.03
2019-03-20T02:48:04.527Z,0.60
2019-03-20T02:53:00.445Z,0.53
2019-03-20T02:57:56.383Z,0.59
2019-03-20T03:02:52.296Z,0.38
2019-03-20T03:07:48.253Z,0.23
2019-03-20T03:12:44.262Z,0.59
2019-03-20T03:17:40.166Z,0.31
2019-03-20T03:22:36.079Z,0.17
2019-03-20T03:27:31.995Z,0.54
2019-03-20T03:32:27.951Z,0.26
2019-03-20T03:37:23.910Z,0.17
2019-03-20T03:42:19.826Z,0.47
2019-03-20T03:47:15.731Z,0.54
2019-03-20T03:52:11.667Z,0.81
2019-03-20T03:57:07.598Z,0.35
2019-03-20T04:02:03.607Z,0.32
2019-03-20T04:06:59.579Z,0.41
2019-03-20T04:11:55.487Z,0.16
2019-03-20T04:16:51.412Z,0.34
2019-03-20T04:21:47.349Z,0.31
2019-03-20T04:26:43.258Z,0.34
2019-03-20T04:31:39.229Z,0.69
2019-03-20T04:36:46.764Z,0.87
2019-03-20T04:41:33.003Z,0.88
2019-03-20T04:46:29.002Z,1.12
2019-03-20T04:51:24.911Z,1.73
2019-03-20T04:56:20.853Z,1.53
2019-03-20T05:01:16.762Z,1.59
2019-03-20T05:06:12.719Z,1.57
2019-03-20T05:11:09.022Z,1.58
2019-03-20T05:16:04.933Z,1.58
2019-03-20T05:21:00.858Z,1.88
2019-03-20T05:25:56.779Z,1.71
2019-03-20T05:30:52.718Z,1.68
2019-03-20T05:35:48.626Z,1.81
2019-03-20T05:40:44.533Z,1.99
2019-03-20T05:45:40.424Z,1.78
2019-03-20T05:50:36.347Z,1.90
2019-03-20T05:55:32.294Z,2.49
2019-03-20T06:00:30.132Z,3.31
2019-03-20T06:05:26.047Z,4.73
2019-03-20T06:10:21.960Z,4.60
2019-03-20T06:15:17.883Z,6.46
2019-03-20T06:20:14.097Z,7.65
2019-03-20T06:25:11.767Z,8.17
2019-03-20T06:30:18.183Z,8.04
2019-03-20T06:35:14.203Z,10.02
2019-03-20T06:40:17.129Z,11.02
2019-03-20T06:45:17.108Z,10.99
2019-03-20T06:50:15.454Z,10.53
2019-03-20T06:55:11.473Z,9.83
2019-03-20T07:00:32.086Z,8.83
2019-03-20T07:05:48.544Z,8.07
2019-03-20T07:10:50.872Z,7.18
2019-03-20T07:15:46.782Z,6.88
2019-03-20T07:20:42.702Z,6.76
2019-03-20T07:25:38.632Z,6.90
2019-03-20T07:30:34.542Z,6.71
2019-03-20T07:35:30.560Z,6.74
2019-03-20T07:40:26.466Z,6.82
2019-03-20T07:45:22.381Z,6.86
2019-03-20T07:50:18.290Z,7.19
2019-03-20T07:55:14.197Z,7.35
2019-03-20T08:00:12.120Z,7.34
2019-03-20T08:05:09.040Z,7.55
2019-03-20T08:10:11.987Z,7.88
2019-03-20T08:15:13.063Z,8.01
2019-03-20T08:20:11.574Z,7.46
2019-03-20T08:25:07.731Z,7.84
2019-03-20T08:30:07.452Z,8.70
2019-03-20T08:35:05.770Z,8.69
2019-03-20T08:40:02.798Z,9.03
2019-03-20T08:44:58.720Z,9.35
2019-03-20T08:49:54.632Z,9.62
2019-03-20T08:54:51.245Z,9.59
2019-03-20T08:59:47.223Z,9.72
2019-03-20T09:04:43.142Z,10.11
2019-03-20T09:09:39.049Z,10.46
2019-03-20T09:14:34.994Z,10.30
2019-03-20T09:19:30.900Z,10.48
2019-03-20T09:24:27.663Z,10.74
2019-03-20T09:29:23.588Z,11.06
2019-03-20T09:34:19.497Z,10.97
2019-03-20T09:39:15.413Z,11.02
2019-03-20T09:44:11.322Z,10.93
2019-03-20T09:49:07.263Z,11.62
2019-03-20T09:54:09.329Z,11.48
2019-03-20T09:59:05.379Z,11.23
2019-03-20T10:04:01.349Z,11.48
2019-03-20T10:08:57.246Z,11.82
2019-03-20T10:13:53.255Z,11.54
2019-03-20T10:18:49.176Z,11.32
2019-03-20T10:23:46.562Z,11.53
2019-03-20T10:28:42.571Z,11.71
2019-03-20T10:33:38.478Z,12.15
2019-03-20T10:38:35.263Z,12.26
2019-03-20T10:43:31.182Z,11.94
2019-03-20T10:48:27.199Z,11.69
2019-03-20T10:53:23.113Z,11.93
2019-03-20T10:58:19.063Z,11.89
2019-03-20T11:03:15.065Z,11.99
2019-03-20T11:08:12.926Z,12.03
2019-03-20T11:13:08.839Z,12.41
2019-03-20T11:18:04.754Z,12.41
2019-03-20T11:23:00.764Z,12.13
2019-03-20T11:27:56.685Z,12.06
2019-03-20T11:32:52.799Z,12.00
2019-03-20T11:37:48.769Z,12.16
2019-03-20T11:42:44.673Z,12.38
2019-03-20T11:47:40.584Z,12.46
2019-03-20T11:52:36.516Z,12.43
2019-03-20T11:57:32.454Z,12.29
2019-03-20T12:02:28.734Z,12.33
2019-03-20T12:07:24.887Z,12.59
2019-03-20T12:12:20.810Z,12.76
2019-03-20T12:17:16.749Z,12.77
2019-03-20T12:22:12.671Z,12.43
2019-03-20T12:27:15.130Z,12.59
2019-03-20T12:32:06.390Z,12.47
2019-03-20T12:37:02.312Z,12.16
2019-03-20T12:41:58.224Z,12.17
2019-03-20T12:46:54.132Z,12.25
2019-03-20T12:51:50.046Z,12.18
2019-03-20T12:56:46.000Z,12.12
2019-03-20T13:01:41.910Z,12.37
2019-03-20T13:06:39.352Z,12.38
2019-03-20T13:11:35.316Z,12.43
2019-03-20T13:16:32.048Z,12.32
2019-03-20T13:21:28.380Z,12.39
2019-03-20T13:26:24.457Z,12.39
2019-03-20T13:31:21.973Z,12.52
2019-03-20T13:36:18.500Z,12.78
2019-03-20T13:41:14.389Z,12.39
2019-03-20T13:46:10.352Z,12.59
2019-03-20T13:51:06.271Z,12.66
2019-03-20T13:56:02.349Z,12.61
2019-03-20T14:00:58.263Z,12.58
2019-03-20T14:05:54.185Z,12.34
2019-03-20T14:10:50.848Z,12.46
2019-03-20T14:15:46.978Z,12.36
2019-03-20T14:20:42.912Z,12.33
2019-03-20T14:25:38.889Z,12.29
2019-03-20T14:30:34.832Z,12.35
2019-03-20T14:35:30.755Z,12.46
2019-03-20T14:40:37.651Z,12.70
2019-03-20T14:45:28.342Z,12.87
2019-03-20T14:50:28.346Z,12.94
2019-03-20T14:55:24.390Z,12.85
2019-03-20T15:00:23.334Z,12.82
2019-03-20T15:05:19.278Z,12.87
2019-03-20T15:10:45.729Z,12.60
2019-03-20T15:15:41.317Z,12.41
2019-03-20T15:20:37.258Z,12.43
2019-03-20T15:25:33.195Z,12.54
2019-03-20T15:30:29.822Z,12.35
2019-03-20T15:35:25.965Z,12.27
2019-03-20T15:40:26.453Z,12.38
2019-03-20T15:45:22.383Z,12.30
2019-03-20T15:50:19.775Z,12.16
2019-03-20T15:55:22.605Z,12.22
2019-03-20T16:00:19.854Z,12.21
2019-03-20T16:05:17.171Z,12.24
2019-03-20T16:10:22.019Z,12.28
2019-03-20T16:15:19.844Z,12.14
2019-03-20T16:20:15.972Z,12.06
2019-03-20T16:25:18.973Z,12.09
2019-03-20T16:30:18.009Z,12.07
2019-03-20T16:35:13.937Z,11.99
2019-03-20T16:40:12.659Z,12.02
2019-03-20T16:45:35.217Z,11.98
2019-03-20T16:50:31.203Z,11.94
2019-03-20T16:55:27.422Z,11.90
2019-03-20T17:00:30.781Z,12.03
2019-03-20T17:05:31.020Z,12.23
2019-03-20T17:10:48.798Z,12.22
2019-03-20T17:15:52.048Z,11.98
2019-03-20T17:20:53.126Z,11.85
2019-03-20T17:25:51.166Z,11.74
2019-03-20T17:30:52.492Z,11.67
2019-03-20T17:35:52.707Z,11.67
2019-03-20T17:40:49.944Z,11.55
2019-03-20T17:45:51.725Z,11.45
2019-03-20T17:50:50.248Z,11.33
2019-03-20T17:55:51.894Z,11.07
2019-03-20T18:00:49.871Z,10.82
2019-03-20T18:05:45.946Z,10.73
2019-03-20T18:10:41.882Z,11.23
2019-03-20T18:15:37.810Z,11.09
2019-03-20T18:20:33.966Z,10.97
2019-03-20T18:25:30.415Z,11.20
2019-03-20T18:30:28.785Z,11.14
2019-03-20T18:35:24.801Z,11.03
2019-03-20T18:40:25.207Z,10.98
2019-03-20T18:45:25.966Z,10.58
2019-03-20T18:50:22.771Z,10.82
2019-03-20T18:55:19.858Z,10.85
2019-03-20T19:00:54.860Z,11.12
2019-03-20T19:05:57.307Z,10.62
2019-03-20T19:10:53.362Z,10.20
2019-03-20T19:15:49.386Z,10.03
2019-03-20T19:20:45.382Z,9.85
2019-03-20T19:25:41.645Z,9.78
2019-03-20T19:30:37.724Z,9.80
2019-03-20T19:35:33.661Z,9.70
2019-03-20T19:40:29.598Z,9.66
2019-03-20T19:45:25.521Z,9.62
2019-03-20T19:50:22.347Z,9.58
2019-03-20T19:55:19.079Z,9.54
2019-03-20T20:00:21.431Z,9.54
2019-03-20T20:05:17.453Z,9.53
2019-03-20T20:10:17.501Z,9.49
2019-03-20T20:15:27.212Z,9.61
2019-03-20T20:20:28.929Z,9.68
2019-03-20T20:25:25.550Z,9.62
2019-03-20T20:30:21.536Z,9.61
2019-03-20T20:35:17.456Z,9.65
2019-03-20T20:40:17.819Z,9.73
2019-03-20T20:45:13.742Z,9.69
2019-03-20T20:50:12.564Z,9.76
2019-03-20T20:55:11.610Z,9.77
2019-03-20T21:00:16.778Z,9.87
2019-03-20T21:05:12.808Z,9.85
2019-03-20T21:10:14.051Z,9.82
2019-03-20T21:15:33.362Z,9.82
2019-03-20T21:20:29.286Z,9.87
2019-03-20T21:25:26.302Z,9.89
2019-03-20T21:30:51.217Z,9.85
2019-03-20T21:36:07.817Z,9.94
2019-03-20T21:41:16.756Z,9.87
2019-03-20T21:46:19.443Z,9.77
2019-03-20T21:51:15.963Z,9.69
2019-03-20T21:56:18.492Z,9.68
2019-03-20T22:01:39.040Z,9.71
2019-03-20T22:06:56.574Z,9.72
2019-03-20T22:12:15.936Z,9.71
2019-03-20T22:17:32.569Z,9.69
2019-03-20T22:22:35.284Z,9.63
2019-03-20T22:27:35.042Z,9.52
2019-03-20T22:33:08.503Z,9.50
2019-03-20T22:38:07.912Z,9.44
2019-03-20T22:43:13.490Z,9.45
2019-03-20T22:48:32.577Z,9.46
2019-03-20T22:53:35.097Z,9.39
2019-03-20T22:58:44.589Z,9.36
2019-03-20T23:03:53.063Z,9.32
2019-03-20T23:08:48.988Z,9.33
2019-03-20T23:13:44.908Z,9.34
2019-03-20T23:18:40.825Z,9.32
2019-03-20T23:23:37.515Z,9.31
2019-03-20T23:28:33.436Z,9.72
2019-03-20T23:33:29.357Z,9.60
2019-03-20T23:38:25.319Z,9.97
2019-03-20T23:43:21.232Z,9.61
2019-03-20T23:48:37.829Z,9.49
2019-03-20T23:53:34.562Z,9.41
2019-03-20T23:58:30.522Z,9.32
